Time;durP1;ratioP1;P1;durP2;ratioP2;P2;SDS_P1;SDS_P2;PMS_P1;PMS_P2;Temp;Humidity;BMP_temperature;BMP_pressure;BME280_temperature;BME280_humidity;BME280_pressure;Samples;Min_cycle;Max_cycle;Signal;HPM_P1;HPM_P2
2022/08/11 00:00:49;;;;;;;;;;;22.60;60.60;;;;;;5022464;28;19983;-67
2022/08/11 00:03:15;;;;;;;;;;;22.60;60.50;;;;;;5022954;28;20676;-67
2022/08/11 00:05:50;;;;;;;;;;;22.50;60.70;;;;;;5028716;28;20676;-67
2022/08/11 00:08:29;;;;;;;;;;;22.50;60.60;;;;;;5033749;28;19971;-67
2022/08/11 00:10:59;;;;;;;;;;;22.50;60.80;;;;;;5041608;28;19916;-67
2022/08/11 00:13:31;;;;;;;;;;;22.50;60.70;;;;;;5041680;28;19916;-67
2022/08/11 00:15:56;;;;;;;;;;;22.50;60.80;;;;;;5025573;28;19948;-67
2022/08/11 00:18:22;;;;;;;;;;;22.40;60.90;;;;;;5022201;28;19949;-67
2022/08/11 00:20:49;;;;;;;;;;;22.40;60.90;;;;;;5022631;28;19913;-67
2022/08/11 00:23:15;;;;;;;;;;;22.40;60.90;;;;;;5023430;28;19921;-67
2022/08/11 00:25:45;;;;;;;;;;;22.30;61.00;;;;;;5019570;28;20520;-67
2022/08/11 00:28:23;;;;;;;;;;;22.30;61.00;;;;;;5040938;28;20495;-67
2022/08/11 00:30:50;;;;;;;;;;;22.20;60.90;;;;;;5041123;28;19943;-68
2022/08/11 00:33:17;;;;;;;;;;;22.20;61.30;;;;;;5041010;28;19949;-67
2022/08/11 00:35:43;;;;;;;;;;;22.20;61.20;;;;;;5022362;28;20042;-67
2022/08/11 00:38:09;;;;;;;;;;;22.20;61.30;;;;;;5040575;28;19990;-67
2022/08/11 00:40:43;;;;;;;;;;;22.10;61.40;;;;;;5037828;28;20401;-67
2022/08/11 00:43:15;;;;;;;;;;;22.10;61.30;;;;;;5040661;28;19948;-67
2022/08/11 00:45:49;;;;;;;;;;;22.10;61.40;;;;;;5026795;28;19921;-67
2022/08/11 00:48:44;;;;;;;;;;;22.00;61.50;;;;;;5021169;28;19986;-67
2022/08/11 00:51:18;;;;;;;;;;;22.00;61.50;;;;;;5021104;28;19976;-67
2022/08/11 00:53:50;;;;;;;;;;;22.00;61.40;;;;;;5021141;28;19913;-67
2022/08/11 00:56:42;;;;;;;;;;;21.90;61.50;;;;;;5021389;28;20509;-67
2022/08/11 00:59:22;;;;;;;;;;;21.90;61.60;;;;;;5035896;28;19970;-67
2022/08/11 01:01:55;;;;;;;;;;;21.90;61.60;;;;;;5017303;28;20592;-67
2022/08/11 01:04:29;;;;;;;;;;;21.90;61.60;;;;;;5021814;28;19913;-67
2022/08/11 01:07:14;;;;;;;;;;;21.80;61.70;;;;;;5036905;28;19921;-67
2022/08/11 01:09:51;;;;;;;;;;;21.80;61.80;;;;;;5040704;28;19921;-67
2022/08/11 01:12:25;;;;;;;;;;;21.80;61.90;;;;;;5023881;28;19931;-67
2022/08/11 01:14:53;;;;;;;;;;;21.70;61.80;;;;;;5021799;28;19917;-67
2022/08/11 01:17:25;;;;;;;;;;;21.70;61.80;;;;;;5029565;28;19921;-67
2022/08/11 01:19:56;;;;;;;;;;;21.70;62.00;;;;;;5040443;28;19912;-67
2022/08/11 01:22:40;;;;;;;;;;;21.70;62.00;;;;;;5034962;28;19913;-67
2022/08/11 01:25:36;;;;;;;;;;;21.60;61.90;;;;;;5021353;28;19917;-67
2022/08/11 01:28:22;;;;;;;;;;;21.60;62.10;;;;;;5021068;28;20581;-67
2022/08/11 01:31:06;;;;;;;;;;;21.60;62.10;;;;;;5021047;28;19959;-67
2022/08/11 01:33:32;;;;;;;;;;;21.60;62.10;;;;;;5009231;28;20311;-67
2022/08/11 01:36:06;;;;;;;;;;;21.50;62.30;;;;;;5035751;28;20023;-67
2022/08/11 01:38:38;;;;;;;;;;;21.50;62.20;;;;;;5040204;28;19913;-67
2022/08/11 01:41:22;;;;;;;;;;;21.50;62.30;;;;;;5040502;28;19913;-67
2022/08/11 01:46:56;;;;;;;;;;;21.40;62.40;;;;;;5019535;28;19924;-67
2022/08/11 01:49:30;;;;;;;;;;;21.40;62.50;;;;;;5035790;28;19921;-67
2022/08/11 01:52:07;;;;;;;;;;;21.40;62.40;;;;;;5038066;28;19913;-67
2022/08/11 01:54:41;;;;;;;;;;;21.30;62.60;;;;;;5021040;28;19913;-67
2022/08/11 01:57:09;;;;;;;;;;;21.30;62.70;;;;;;5021233;28;19920;-67
2022/08/11 01:59:38;;;;;;;;;;;21.30;62.80;;;;;;5023217;28;20486;-67
2022/08/11 02:02:19;;;;;;;;;;;21.30;62.80;;;;;;5024460;28;19913;-67
2022/08/11 02:05:08;;;;;;;;;;;21.20;62.90;;;;;;5025680;28;19913;-67
2022/08/11 02:07:48;;;;;;;;;;;21.20;62.80;;;;;;5027580;28;19925;-67
2022/08/11 02:13:17;;;;;;;;;;;21.20;62.90;;;;;;5043358;28;19986;-67
2022/08/11 02:15:49;;;;;;;;;;;21.20;63.10;;;;;;5029282;28;19920;-67
2022/08/11 02:18:14;;;;;;;;;;;21.10;63.00;;;;;;5023942;28;19920;-68
2022/08/11 02:26:03;;;;;;;;;;;21.10;63.20;;;;;;5024168;28;20321;-67
2022/08/11 02:28:41;;;;;;;;;;;21.00;63.10;;;;;;5023985;28;19953;-67
2022/08/11 02:34:40;;;;;;;;;;;21.00;63.30;;;;;;5030768;28;20377;-67
2022/08/11 02:37:23;;;;;;;;;;;20.90;63.10;;;;;;5003317;28;19913;-67
2022/08/11 02:40:02;;;;;;;;;;;20.90;63.30;;;;;;5033979;28;20318;-67
2022/08/11 02:42:45;;;;;;;;;;;20.90;63.40;;;;;;5042697;28;19917;-67
2022/08/11 02:45:11;;;;;;;;;;;20.90;63.50;;;;;;5033288;28;19974;-67
2022/08/11 02:50:59;;;;;;;;;;;20.90;63.60;;;;;;5036905;28;19913;-67
2022/08/11 02:53:29;;;;;;;;;;;20.80;63.70;;;;;;5023786;28;19918;-67
2022/08/11 02:56:15;;;;;;;;;;;20.80;63.70;;;;;;5024656;28;19917;-67
2022/08/11 02:59:48;;;;;;;;;;;20.70;63.70;;;;;;5031431;28;19924;-67
2022/08/11 03:01:42;;;;;;;;;;;20.70;63.80;;;;;;5017126;28;19913;-67
2022/08/11 03:04:16;;;;;;;;;;;20.70;63.80;;;;;;5023874;28;20556;-67
2022/08/11 03:06:51;;;;;;;;;;;20.70;63.80;;;;;;5036731;28;19913;-67
2022/08/11 03:09:26;;;;;;;;;;;20.70;63.70;;;;;;5037050;28;20563;-67
2022/08/11 03:18:05;;;;;;;;;;;20.60;64.00;;;;;;5023398;28;20374;-67
2022/08/11 03:20:44;;;;;;;;;;;20.60;64.10;;;;;;5023514;28;19909;-67
2022/08/11 03:23:09;;;;;;;;;;;20.50;64.00;;;;;;5018639;28;19917;-67
2022/08/11 03:25:48;;;;;;;;;;;20.60;64.20;;;;;;5023554;28;20384;-67
2022/08/11 03:28:19;;;;;;;;;;;20.50;64.10;;;;;;5022621;28;19965;-67
2022/08/11 03:30:55;;;;;;;;;;;20.60;64.30;;;;;;5022346;28;19923;-67
2022/08/11 03:36:13;;;;;;;;;;;20.50;64.20;;;;;;5041341;28;19923;-67
2022/08/11 03:38:50;;;;;;;;;;;20.40;64.30;;;;;;5042009;28;19920;-67
2022/08/11 03:41:43;;;;;;;;;;;20.50;64.40;;;;;;5041518;28;20381;-67
2022/08/11 03:44:24;;;;;;;;;;;20.40;64.30;;;;;;5040555;28;19917;-67
2022/08/11 03:46:52;;;;;;;;;;;20.40;64.40;;;;;;5030321;28;19952;-67
2022/08/11 03:49:23;;;;;;;;;;;20.40;64.40;;;;;;5012624;28;19935;-67
2022/08/11 03:51:51;;;;;;;;;;;20.30;64.40;;;;;;5018503;28;20012;-67
2022/08/11 03:54:35;;;;;;;;;;;20.30;64.60;;;;;;5022996;28;19925;-68
2022/08/11 03:57:20;;;;;;;;;;;20.30;64.50;;;;;;5022510;28;19946;-67
2022/08/11 03:59:57;;;;;;;;;;;20.30;64.50;;;;;;5022712;28;19944;-67
2022/08/11 04:02:35;;;;;;;;;;;20.30;64.60;;;;;;5039660;28;19939;-67
2022/08/11 04:05:19;;;;;;;;;;;20.30;64.80;;;;;;5018125;28;20284;-67
2022/08/11 04:07:47;;;;;;;;;;;20.20;64.70;;;;;;5041216;28;19962;-67
2022/08/11 04:10:22;;;;;;;;;;;20.20;64.70;;;;;;5023576;28;19948;-67
2022/08/11 04:12:50;;;;;;;;;;;20.20;64.80;;;;;;5041414;28;19912;-67
2022/08/11 04:18:15;;;;;;;;;;;20.20;64.90;;;;;;5021948;28;19943;-67
2022/08/11 04:20:49;;;;;;;;;;;20.20;64.90;;;;;;5034185;28;20396;-67
2022/08/11 04:23:21;;;;;;;;;;;20.20;65.00;;;;;;5014913;28;19944;-67
2022/08/11 04:25:59;;;;;;;;;;;20.20;64.90;;;;;;5022362;28;19913;-67
2022/08/11 04:28:27;;;;;;;;;;;20.10;65.00;;;;;;5021968;28;20004;-67
2022/08/11 04:30:53;;;;;;;;;;;20.10;65.00;;;;;;5022146;28;19921;-67
2022/08/11 04:33:37;;;;;;;;;;;20.10;65.00;;;;;;5004450;28;19909;-67
2022/08/11 04:36:11;;;;;;;;;;;20.10;65.00;;;;;;5023361;28;19917;-67
2022/08/11 04:38:37;;;;;;;;;;;20.10;65.00;;;;;;5016042;28;20571;-67
2022/08/11 04:41:07;;;;;;;;;;;20.10;65.00;;;;;;5022349;28;19913;-67
2022/08/11 04:43:52;;;;;;;;;;;20.00;64.80;;;;;;5022464;28;19913;-68
2022/08/11 04:46:47;;;;;;;;;;;20.00;65.00;;;;;;5021950;28;19982;-67
2022/08/11 05:03:53;;;;;;;;;;;19.90;65.20;;;;;;5021750;28;19919;-67
2022/08/11 05:06:19;;;;;;;;;;;20.00;65.20;;;;;;5028784;28;20679;-67
2022/08/11 05:09:04;;;;;;;;;;;20.00;65.20;;;;;;5021910;28;19917;-67
2022/08/11 05:11:36;;;;;;;;;;;19.90;65.20;;;;;;5004595;28;20393;-68
2022/08/11 05:36:49;;;;;;;;;;;19.90;65.40;;;;;;5024526;28;19947;-67
2022/08/11 05:58:33;;;;;;;;;;;19.80;65.70;;;;;;5019566;28;20137;-67
2022/08/11 06:00:59;;;;;;;;;;;19.90;65.80;;;;;;5024518;28;20022;-67
2022/08/11 06:03:26;;;;;;;;;;;19.80;65.70;;;;;;5024621;28;20318;-67
2022/08/11 06:05:52;;;;;;;;;;;19.80;65.80;;;;;;5031608;28;20560;-67
2022/08/11 06:08:26;;;;;;;;;;;19.80;65.80;;;;;;5043124;28;19917;-67
2022/08/11 06:10:51;;;;;;;;;;;19.80;65.80;;;;;;5043556;28;19966;-67
2022/08/11 06:13:17;;;;;;;;;;;19.80;65.60;;;;;;5035420;28;19921;-67
2022/08/11 06:15:44;;;;;;;;;;;19.80;65.80;;;;;;5026369;28;20612;-67
2022/08/11 06:18:11;;;;;;;;;;;19.80;65.80;;;;;;5025224;28;20019;-67
2022/08/11 06:20:55;;;;;;;;;;;19.90;65.80;;;;;;5042832;28;19913;-67
2022/08/11 06:23:22;;;;;;;;;;;19.80;65.90;;;;;;5029735;28;19996;-68
2022/08/11 06:25:48;;;;;;;;;;;19.90;65.70;;;;;;5023913;28;20016;-67
2022/08/11 06:28:15;;;;;;;;;;;19.80;65.40;;;;;;5023864;28;19917;-68
2022/08/11 06:30:42;;;;;;;;;;;19.80;65.60;;;;;;5025196;28;19961;-67
2022/08/11 06:33:10;;;;;;;;;;;19.80;65.50;;;;;;5023753;28;20044;-67
2022/08/11 06:35:47;;;;;;;;;;;19.90;65.30;;;;;;5023750;28;20269;-68
2022/08/11 06:38:32;;;;;;;;;;;19.80;65.30;;;;;;5026646;28;19989;-67
2022/08/11 06:41:30;;;;;;;;;;;19.90;65.40;;;;;;5024012;28;20608;-68
2022/08/11 06:44:09;;;;;;;;;;;19.80;65.30;;;;;;5023409;28;19913;-67
2022/08/11 06:46:37;;;;;;;;;;;19.80;65.50;;;;;;5022419;28;19921;-67
2022/08/11 06:49:04;;;;;;;;;;;19.90;65.30;;;;;;5023827;28;19920;-67
2022/08/11 06:51:30;;;;;;;;;;;19.90;65.30;;;;;;5023833;28;19977;-67
2022/08/11 06:53:57;;;;;;;;;;;19.90;65.30;;;;;;5026738;28;19944;-67
2022/08/11 07:02:03;;;;;;;;;;;19.90;65.30;;;;;;5019804;28;19972;-67
2022/08/11 07:04:28;;;;;;;;;;;19.90;65.20;;;;;;5023153;28;19913;-67
2022/08/11 07:15:41;;;;;;;;;;;20.00;65.10;;;;;;5030906;28;19920;-67
2022/08/11 07:29:09;;;;;;;;;;;20.10;64.90;;;;;;5042195;28;19963;-67
2022/08/11 07:31:35;;;;;;;;;;;20.10;64.90;;;;;;5042036;28;20444;-67
2022/08/11 07:34:06;;;;;;;;;;;20.10;64.80;;;;;;5041950;28;19913;-67
2022/08/11 07:36:33;;;;;;;;;;;20.10;64.70;;;;;;5042193;28;20284;-68
2022/08/11 07:38:59;;;;;;;;;;;20.10;64.70;;;;;;5032805;28;19963;-67
2022/08/11 07:41:27;;;;;;;;;;;20.20;64.60;;;;;;5023421;28;19913;-67
2022/08/11 07:43:54;;;;;;;;;;;20.20;64.60;;;;;;5023080;28;19914;-67
2022/08/11 07:54:35;;;;;;;;;;;20.30;64.30;;;;;;5019429;28;20380;-67
2022/08/11 08:18:58;;;;;;;;;;;20.60;63.60;;;;;;5022816;28;20478;-67
2022/08/11 08:21:24;;;;;;;;;;;20.60;63.60;;;;;;5022595;28;19917;-67
2022/08/11 08:23:50;;;;;;;;;;;20.60;63.60;;;;;;5012354;28;20386;-67
2022/08/11 08:26:59;;;;;;;;;;;20.60;63.40;;;;;;5015544;28;19913;-67
2022/08/11 08:31:51;;;;;;;;;;;20.70;63.30;;;;;;5022276;28;19935;-67
2022/08/11 08:34:17;;;;;;;;;;;20.80;63.20;;;;;;5022351;28;19917;-67
2022/08/11 08:36:44;;;;;;;;;;;20.80;63.20;;;;;;5021938;28;20453;-67
2022/08/11 08:39:11;;;;;;;;;;;20.80;63.10;;;;;;5023073;28;19917;-67
2022/08/11 08:41:37;;;;;;;;;;;20.90;63.10;;;;;;5021068;28;19989;-67
2022/08/11 08:44:06;;;;;;;;;;;20.90;63.10;;;;;;5040481;28;19966;-67
2022/08/11 08:46:53;;;;;;;;;;;21.00;63.20;;;;;;5021571;28;19921;-67
2022/08/11 08:49:22;;;;;;;;;;;21.00;63.00;;;;;;5021975;28;19924;-67
2022/08/11 08:51:51;;;;;;;;;;;21.00;62.80;;;;;;5016438;28;19913;-67
2022/08/11 08:54:18;;;;;;;;;;;21.00;62.70;;;;;;5022388;28;19917;-67
2022/08/11 08:56:45;;;;;;;;;;;21.10;62.70;;;;;;5023621;28;19917;-67
2022/08/11 08:59:14;;;;;;;;;;;21.20;62.60;;;;;;5025032;28;19924;-67
2022/08/11 09:01:42;;;;;;;;;;;21.10;62.50;;;;;;5015782;28;19973;-67
2022/08/11 09:04:08;;;;;;;;;;;21.30;62.50;;;;;;5021877;28;19913;-67
2022/08/11 09:06:34;;;;;;;;;;;21.30;62.40;;;;;;5023693;28;19913;-67
2022/08/11 09:09:00;;;;;;;;;;;21.30;62.20;;;;;;5025915;28;19928;-67
2022/08/11 09:14:10;;;;;;;;;;;21.40;62.10;;;;;;5029532;28;19945;-67
2022/08/11 09:16:35;;;;;;;;;;;21.50;62.10;;;;;;5024672;28;19917;-67
2022/08/11 09:19:01;;;;;;;;;;;21.50;62.10;;;;;;5024965;28;20312;-67
2022/08/11 09:21:27;;;;;;;;;;;21.60;62.00;;;;;;5007274;28;19913;-67
2022/08/11 09:27:12;;;;;;;;;;;21.70;61.70;;;;;;5024849;28;20031;-67
2022/08/11 09:29:31;;;;;;;;;;;21.70;61.60;;;;;;5024976;28;20357;-67
2022/08/11 09:31:57;;;;;;;;;;;21.80;61.60;;;;;;5025363;28;19913;-67
2022/08/11 09:34:25;;;;;;;;;;;21.80;61.40;;;;;;5024802;28;20626;-67
2022/08/11 09:42:20;;;;;;;;;;;22.00;61.30;;;;;;5025083;28;19923;-67
2022/08/11 09:44:49;;;;;;;;;;;22.10;61.10;;;;;;5024450;28;19918;-67
2022/08/11 09:47:20;;;;;;;;;;;22.10;61.00;;;;;;5027523;28;19923;-67
2022/08/11 09:49:47;;;;;;;;;;;22.20;61.00;;;;;;5018920;28;19925;-67
2022/08/11 09:52:14;;;;;;;;;;;22.20;60.80;;;;;;5023117;28;19916;-67
2022/08/11 09:54:41;;;;;;;;;;;22.30;60.70;;;;;;5024975;28;19964;-67
2022/08/11 09:59:51;;;;;;;;;;;22.50;60.50;;;;;;5025185;28;20380;-67
2022/08/11 10:02:21;;;;;;;;;;;22.50;60.40;;;;;;5024810;28;20015;-67
2022/08/11 10:04:47;;;;;;;;;;;22.60;60.30;;;;;;5031412;28;19917;-67
2022/08/11 10:07:15;;;;;;;;;;;22.60;60.10;;;;;;5042349;28;20072;-67
2022/08/11 10:09:45;;;;;;;;;;;22.70;60.00;;;;;;5025735;28;19917;-67
2022/08/11 10:12:15;;;;;;;;;;;22.80;60.00;;;;;;5043649;28;19919;-67
2022/08/11 10:17:29;;;;;;;;;;;22.90;59.50;;;;;;5024448;28;20486;-67
2022/08/11 10:19:56;;;;;;;;;;;23.00;59.60;;;;;;5030977;28;19913;-67
2022/08/11 10:27:55;;;;;;;;;;;23.10;59.40;;;;;;5024578;28;20019;-67
2022/08/11 10:35:50;;;;;;;;;;;23.40;59.60;;;;;;5027006;28;19970;-67
2022/08/11 10:38:17;;;;;;;;;;;23.50;59.80;;;;;;5026530;28;20648;-67
2022/08/11 10:40:44;;;;;;;;;;;23.60;60.00;;;;;;5024298;28;19917;-67
2022/08/11 10:43:13;;;;;;;;;;;23.70;60.00;;;;;;5024279;28;19914;-67
2022/08/11 10:48:26;;;;;;;;;;;23.80;59.80;;;;;;5023607;28;20007;-67
2022/08/11 10:59:08;;;;;;;;;;;24.30;59.80;;;;;;5030114;28;19919;-67
2022/08/11 11:01:36;;;;;;;;;;;24.40;60.20;;;;;;5043017;28;19913;-67
2022/08/11 11:04:09;;;;;;;;;;;24.50;59.80;;;;;;5020156;28;19958;-67
2022/08/11 11:06:54;;;;;;;;;;;24.60;59.90;;;;;;5031188;28;20420;-67
2022/08/11 11:09:33;;;;;;;;;;;24.80;60.00;;;;;;5022793;28;20098;-67
2022/08/11 11:17:56;;;;;;;;;;;25.20;60.00;;;;;;5019435;28;20037;-66
2022/08/11 11:20:24;;;;;;;;;;;25.30;59.90;;;;;;5023514;28;20574;-67
2022/08/11 11:22:51;;;;;;;;;;;25.40;59.90;;;;;;5023733;28;19917;-67
2022/08/11 11:25:32;;;;;;;;;;;25.60;60.00;;;;;;5023521;28;19954;-67
2022/08/11 11:27:57;;;;;;;;;;;25.70;60.00;;;;;;5001934;28;19917;-67
2022/08/11 11:30:26;;;;;;;;;;;25.80;60.10;;;;;;5023419;28;19951;-67
2022/08/11 11:33:01;;;;;;;;;;;25.90;60.80;;;;;;5005325;28;19964;-66
2022/08/11 11:35:35;;;;;;;;;;;26.00;60.70;;;;;;5023490;28;19913;-66
2022/08/11 11:38:01;;;;;;;;;;;26.10;60.00;;;;;;5023049;28;20024;-66
2022/08/11 11:40:27;;;;;;;;;;;26.20;60.00;;;;;;5023380;28;20008;-67
2022/08/11 11:42:55;;;;;;;;;;;26.40;60.20;;;;;;5023610;28;19967;-66
2022/08/11 11:45:22;;;;;;;;;;;26.40;60.00;;;;;;5023134;28;19964;-66
2022/08/11 11:47:51;;;;;;;;;;;26.50;60.00;;;;;;5023143;28;19956;-66
2022/08/11 11:50:22;;;;;;;;;;;26.60;59.90;;;;;;5023500;28;19947;-67
2022/08/11 11:52:48;;;;;;;;;;;26.70;60.00;;;;;;5023082;28;19963;-66
2022/08/11 11:55:14;;;;;;;;;;;26.80;59.70;;;;;;5023076;28;20004;-66
2022/08/11 12:03:10;;;;;;;;;;;27.10;59.80;;;;;;5023192;28;19950;-66
2022/08/11 12:05:36;;;;;;;;;;;27.20;59.70;;;;;;5010217;28;19909;-66
2022/08/11 12:08:10;;;;;;;;;;;27.20;59.70;;;;;;5023568;28;19917;-66
2022/08/11 12:10:37;;;;;;;;;;;27.30;59.80;;;;;;5024122;28;19916;-66
2022/08/11 12:15:49;;;;;;;;;;;27.40;59.60;;;;;;5040429;28;19950;-66
2022/08/11 12:18:15;;;;;;;;;;;27.50;59.50;;;;;;5041424;28;19916;-66
2022/08/11 12:20:41;;;;;;;;;;;27.60;59.50;;;;;;5024006;28;20462;-66
2022/08/11 12:28:35;;;;;;;;;;;27.80;59.50;;;;;;5022393;28;19924;-66
2022/08/11 12:31:02;;;;;;;;;;;27.90;59.60;;;;;;5005301;28;20621;-66
2022/08/11 12:33:28;;;;;;;;;;;28.00;59.70;;;;;;5028433;28;19958;-66
2022/08/11 12:35:58;;;;;;;;;;;28.10;59.50;;;;;;5041454;28;20262;-66
2022/08/11 12:38:23;;;;;;;;;;;28.10;59.70;;;;;;5041644;28;19913;-66
2022/08/11 12:46:30;;;;;;;;;;;28.20;59.90;;;;;;5037267;28;20008;-66
2022/08/11 12:52:00;;;;;;;;;;;28.40;59.60;;;;;;5034346;28;19920;-66
2022/08/11 12:54:28;;;;;;;;;;;28.50;59.70;;;;;;5016214;28;19921;-66
2022/08/11 13:05:12;;;;;;;;;;;28.70;59.20;;;;;;5032972;28;19920;-66
2022/08/11 13:07:40;;;;;;;;;;;28.80;59.20;;;;;;5031074;28;19912;-66
2022/08/11 13:10:07;;;;;;;;;;;28.80;58.90;;;;;;5041226;28;19913;-66
2022/08/11 13:12:49;;;;;;;;;;;28.90;58.90;;;;;;5041262;28;20361;-66
2022/08/11 13:15:19;;;;;;;;;;;28.90;58.70;;;;;;5030472;28;19920;-66
2022/08/11 13:17:47;;;;;;;;;;;29.00;58.90;;;;;;5021302;28;19983;-66
2022/08/11 13:20:15;;;;;;;;;;;29.10;59.00;;;;;;5021790;28;19913;-66
2022/08/11 13:22:44;;;;;;;;;;;29.10;58.80;;;;;;5022586;28;20008;-66
2022/08/11 13:25:10;;;;;;;;;;;29.20;58.70;;;;;;5021995;28;20369;-66
2022/08/11 13:27:36;;;;;;;;;;;29.20;58.70;;;;;;5020774;28;19909;-66
2022/08/11 13:32:46;;;;;;;;;;;29.40;58.90;;;;;;5020888;28;19938;-66
2022/08/11 13:35:15;;;;;;;;;;;29.40;58.50;;;;;;5020482;28;19913;-66
2022/08/11 13:37:45;;;;;;;;;;;29.40;57.80;;;;;;5034328;28;19919;-66
2022/08/11 13:40:11;;;;;;;;;;;29.50;57.50;;;;;;5053444;28;19999;-67
2022/08/11 13:42:38;;;;;;;;;;;29.60;58.20;;;;;;5058053;28;20373;-66
2022/08/11 13:45:06;;;;;;;;;;;29.60;58.30;;;;;;5021371;28;19973;-66
2022/08/11 13:47:33;;;;;;;;;;;29.70;58.30;;;;;;5020322;28;19913;-66
2022/08/11 13:49:58;;;;;;;;;;;29.70;57.80;;;;;;5020100;28;19927;-66
2022/08/11 13:52:25;;;;;;;;;;;29.70;58.10;;;;;;5019569;28;19946;-66
2022/08/11 13:54:52;;;;;;;;;;;29.80;58.90;;;;;;5021529;28;19990;-67
2022/08/11 13:57:18;;;;;;;;;;;29.80;58.00;;;;;;5028558;28;20017;-66
2022/08/11 13:59:45;;;;;;;;;;;29.90;58.00;;;;;;5042445;28;19916;-67
2022/08/11 14:02:17;;;;;;;;;;;29.90;58.10;;;;;;5042627;28;19913;-67
2022/08/11 14:04:51;;;;;;;;;;;30.00;58.00;;;;;;5043488;27;19940;-66
2022/08/11 14:07:18;;;;;;;;;;;30.00;57.90;;;;;;5024640;28;20000;-66
2022/08/11 14:09:45;;;;;;;;;;;30.10;57.90;;;;;;5023346;28;19917;-66
2022/08/11 14:15:04;;;;;;;;;;;30.20;57.90;;;;;;5025384;28;19923;-67
2022/08/11 14:17:31;;;;;;;;;;;30.20;57.70;;;;;;5023916;28;19913;-66
2022/08/11 14:20:00;;;;;;;;;;;30.20;57.60;;;;;;5024370;28;19944;-66
2022/08/11 14:22:26;;;;;;;;;;;30.30;57.70;;;;;;5009934;28;20475;-66
2022/08/11 14:24:52;;;;;;;;;;;30.30;57.20;;;;;;5023746;28;20451;-66
2022/08/11 14:27:18;;;;;;;;;;;30.40;57.10;;;;;;5005358;28;20019;-66
2022/08/11 14:29:44;;;;;;;;;;;30.50;57.40;;;;;;5023643;28;19917;-66
2022/08/11 14:32:11;;;;;;;;;;;30.50;57.30;;;;;;5023810;28;20005;-66
2022/08/11 14:34:40;;;;;;;;;;;30.50;57.00;;;;;;5020559;28;19917;-66
2022/08/11 14:37:09;;;;;;;;;;;30.50;56.80;;;;;;5021458;28;19929;-66
2022/08/11 14:39:55;;;;;;;;;;;30.60;56.40;;;;;;5021953;28;20050;-67
2022/08/11 14:47:53;;;;;;;;;;;30.80;54.80;;;;;;5022443;28;19925;-67
2022/08/11 14:50:23;;;;;;;;;;;30.90;53.60;;;;;;5022852;28;20016;-67
2022/08/11 14:52:51;;;;;;;;;;;31.00;53.20;;;;;;5022386;28;19917;-65
2022/08/11 14:58:02;;;;;;;;;;;31.20;53.10;;;;;;5020324;28;20030;-66
2022/08/11 15:00:27;;;;;;;;;;;31.30;53.00;;;;;;5021600;28;19917;-65
2022/08/11 15:03:08;;;;;;;;;;;31.40;53.20;;;;;;5021742;28;20457;-66
2022/08/11 15:05:35;;;;;;;;;;;31.60;52.70;;;;;;5024785;28;19917;-66
2022/08/11 15:08:01;;;;;;;;;;;31.70;52.30;;;;;;5022699;28;19956;-66
2022/08/11 15:10:27;;;;;;;;;;;31.90;52.20;;;;;;5019005;28;20819;-66
2022/08/11 15:12:52;;;;;;;;;;;32.10;52.90;;;;;;5019552;28;19952;-66
2022/08/11 15:18:05;;;;;;;;;;;32.40;51.40;;;;;;5023068;28;19974;-63
2022/08/11 15:26:02;;;;;;;;;;;32.80;50.50;;;;;;5026228;27;20759;-63
2022/08/11 15:48:15;;;;;;;;;;;34.30;49.00;;;;;;5051003;27;19943;-64
2022/08/11 15:50:45;;;;;;;;;;;34.50;48.60;;;;;;5026739;28;19961;-65
2022/08/11 15:53:24;;;;;;;;;;;34.70;48.30;;;;;;5047637;27;19918;-64
2022/08/11 15:55:50;;;;;;;;;;;34.70;48.20;;;;;;5069313;27;20005;-64
2022/08/11 16:04:11;;;;;;;;;;;35.10;47.70;;;;;;5028181;28;19931;-65
2022/08/11 16:06:40;;;;;;;;;;;35.20;47.10;;;;;;5023500;28;20582;-65
2022/08/11 16:09:07;;;;;;;;;;;35.40;47.20;;;;;;5029379;27;19921;-64
2022/08/11 16:11:36;;;;;;;;;;;35.50;46.90;;;;;;5023019;28;19961;-64
2022/08/11 16:16:56;;;;;;;;;;;35.80;47.00;;;;;;5026972;28;19961;-64
2022/08/11 16:19:23;;;;;;;;;;;35.90;46.70;;;;;;5023121;28;19913;-64
2022/08/11 16:21:50;;;;;;;;;;;36.20;46.60;;;;;;5021342;28;20366;-65
2022/08/11 16:24:18;;;;;;;;;;;36.30;46.50;;;;;;5020641;28;19909;-64
2022/08/11 16:26:44;;;;;;;;;;;36.40;46.50;;;;;;5020791;28;20025;-65
2022/08/11 16:29:10;;;;;;;;;;;36.60;46.40;;;;;;5020906;28;19917;-65
2022/08/11 16:31:36;;;;;;;;;;;36.70;46.10;;;;;;5020571;28;19961;-65
2022/08/11 16:34:03;;;;;;;;;;;36.90;46.10;;;;;;5020863;28;19913;-65
2022/08/11 16:39:17;;;;;;;;;;;37.30;45.70;;;;;;5020236;28;19921;-65
2022/08/11 16:47:26;;;;;;;;;;;37.70;45.40;;;;;;5031256;28;19917;-65
2022/08/11 16:49:55;;;;;;;;;;;37.70;45.30;;;;;;5020681;28;20280;-65
2022/08/11 16:52:21;;;;;;;;;;;37.40;45.60;;;;;;5021271;28;20611;-65
2022/08/11 16:54:47;;;;;;;;;;;37.10;45.90;;;;;;5021400;28;20366;-65
2022/08/11 17:00:05;;;;;;;;;;;36.40;46.70;;;;;;5021230;28;20500;-65
2022/08/11 17:13:35;;;;;;;;;;;34.60;49.70;;;;;;5019825;28;19924;-65
2022/08/11 17:16:07;;;;;;;;;;;34.40;50.20;;;;;;5020524;28;20050;-65
2022/08/11 17:18:39;;;;;;;;;;;34.20;50.50;;;;;;5023285;28;20629;-65
2022/08/11 17:21:11;;;;;;;;;;;34.00;50.20;;;;;;5037777;28;19917;-65
2022/08/11 17:23:49;;;;;;;;;;;33.80;50.30;;;;;;5023627;28;20599;-65
2022/08/11 17:26:17;;;;;;;;;;;33.60;50.50;;;;;;5020203;28;20000;-65
2022/08/11 17:28:43;;;;;;;;;;;33.50;50.80;;;;;;5020765;28;19925;-65
2022/08/11 17:36:39;;;;;;;;;;;33.00;51.50;;;;;;5022530;28;20317;-65
2022/08/11 17:39:07;;;;;;;;;;;32.80;51.40;;;;;;5016060;28;20004;-65
2022/08/11 17:49:46;;;;;;;;;;;32.30;51.40;;;;;;5023611;28;19920;-65
2022/08/11 18:00:24;;;;;;;;;;;31.70;52.40;;;;;;5023711;28;19985;-64
2022/08/11 18:05:36;;;;;;;;;;;31.50;52.80;;;;;;5028299;28;19920;-65
